sensor_id;sensor_type;location;lat;lon;timestamp;P1;durP1;ratioP1;P2;durP2;ratioP2
12760;SDS011;6444;49.742;6.114;2023-05-27T00:00:37;8.27;;;4.97;;
12760;SDS011;6444;49.742;6.114;2023-05-27T00:03:04;9.87;;;5.37;;
12760;SDS011;6444;49.742;6.114;2023-05-27T00:05:30;9.30;;;4.37;;
12760;SDS011;6444;49.742;6.114;2023-05-27T00:07:57;12.60;;;5.30;;
12760;SDS011;6444;49.742;6.114;2023-05-27T00:10:24;10.73;;;5.73;;
12760;SDS011;6444;49.742;6.114;2023-05-27T00:12:50;12.40;;;5.43;;
12760;SDS011;6444;49.742;6.114;2023-05-27T00:15:17;14.63;;;6.53;;
12760;SDS011;6444;49.742;6.114;2023-05-27T00:17:44;10.83;;;5.27;;
12760;SDS011;6444;49.742;6.114;2023-05-27T00:20:10;14.20;;;6.20;;
12760;SDS011;6444;49.742;6.114;2023-05-27T00:22:37;12.90;;;5.00;;
12760;SDS011;6444;49.742;6.114;2023-05-27T00:25:03;12.73;;;5.43;;
12760;SDS011;6444;49.742;6.114;2023-05-27T00:27:30;11.50;;;5.73;;
12760;SDS011;6444;49.742;6.114;2023-05-27T00:29:57;13.90;;;5.53;;
12760;SDS011;6444;49.742;6.114;2023-05-27T00:32:24;11.37;;;5.53;;
12760;SDS011;6444;49.742;6.114;2023-05-27T00:34:51;11.47;;;4.80;;
12760;SDS011;6444;49.742;6.114;2023-05-27T00:37:17;14.90;;;5.93;;
12760;SDS011;6444;49.742;6.114;2023-05-27T00:39:44;9.70;;;4.73;;
12760;SDS011;6444;49.742;6.114;2023-05-27T00:42:11;8.43;;;4.37;;
12760;SDS011;6444;49.742;6.114;2023-05-27T00:44:37;12.17;;;4.40;;
12760;SDS011;6444;49.742;6.114;2023-05-27T00:47:04;9.80;;;4.67;;
12760;SDS011;6444;49.742;6.114;2023-05-27T00:49:31;10.47;;;4.67;;
12760;SDS011;6444;49.742;6.114;2023-05-27T00:51:57;14.05;;;6.05;;
12760;SDS011;6444;49.742;6.114;2023-05-27T00:54:24;9.60;;;4.90;;
12760;SDS011;6444;49.742;6.114;2023-05-27T00:56:50;9.87;;;4.80;;
12760;SDS011;6444;49.742;6.114;2023-05-27T00:59:17;10.97;;;4.13;;
12760;SDS011;6444;49.742;6.114;2023-05-27T01:01:44;11.53;;;4.60;;
12760;SDS011;6444;49.742;6.114;2023-05-27T01:04:10;12.07;;;5.00;;
12760;SDS011;6444;49.742;6.114;2023-05-27T01:11:58;10.00;;;4.17;;
12760;SDS011;6444;49.742;6.114;2023-05-27T01:14:39;9.30;;;4.53;;
12760;SDS011;6444;49.742;6.114;2023-05-27T01:17:05;9.33;;;4.70;;
12760;SDS011;6444;49.742;6.114;2023-05-27T01:19:41;8.27;;;4.40;;
12760;SDS011;6444;49.742;6.114;2023-05-27T01:22:14;9.07;;;4.53;;
12760;SDS011;6444;49.742;6.114;2023-05-27T01:24:40;11.67;;;4.50;;
12760;SDS011;6444;49.742;6.114;2023-05-27T01:27:10;12.90;;;5.33;;
12760;SDS011;6444;49.742;6.114;2023-05-27T01:29:36;11.50;;;4.87;;
12760;SDS011;6444;49.742;6.114;2023-05-27T01:32:05;12.57;;;4.57;;
12760;SDS011;6444;49.742;6.114;2023-05-27T01:35:04;11.90;;;4.77;;
12760;SDS011;6444;49.742;6.114;2023-05-27T01:37:29;11.03;;;4.40;;
12760;SDS011;6444;49.742;6.114;2023-05-27T01:39:57;10.70;;;4.57;;
12760;SDS011;6444;49.742;6.114;2023-05-27T01:42:24;7.80;;;4.30;;
12760;SDS011;6444;49.742;6.114;2023-05-27T01:44:51;15.63;;;4.30;;
12760;SDS011;6444;49.742;6.114;2023-05-27T01:47:17;10.77;;;4.33;;
12760;SDS011;6444;49.742;6.114;2023-05-27T01:49:44;12.03;;;4.07;;
12760;SDS011;6444;49.742;6.114;2023-05-27T01:52:11;11.67;;;4.27;;
12760;SDS011;6444;49.742;6.114;2023-05-27T01:54:37;11.10;;;4.23;;
12760;SDS011;6444;49.742;6.114;2023-05-27T01:57:04;9.17;;;4.00;;
12760;SDS011;6444;49.742;6.114;2023-05-27T01:59:31;7.37;;;4.10;;
12760;SDS011;6444;49.742;6.114;2023-05-27T02:01:57;13.70;;;4.87;;
12760;SDS011;6444;49.742;6.114;2023-05-27T02:04:24;9.57;;;4.47;;
12760;SDS011;6444;49.742;6.114;2023-05-27T02:06:51;10.98;;;5.00;;
12760;SDS011;6444;49.742;6.114;2023-05-27T02:09:17;12.98;;;4.97;;
12760;SDS011;6444;49.742;6.114;2023-05-27T02:11:44;13.73;;;4.97;;
12760;SDS011;6444;49.742;6.114;2023-05-27T02:14:10;9.27;;;4.53;;
12760;SDS011;6444;49.742;6.114;2023-05-27T02:16:37;11.53;;;4.30;;
12760;SDS011;6444;49.742;6.114;2023-05-27T02:19:05;10.70;;;4.40;;
12760;SDS011;6444;49.742;6.114;2023-05-27T02:21:31;13.90;;;4.97;;
12760;SDS011;6444;49.742;6.114;2023-05-27T02:23:58;15.27;;;4.57;;
12760;SDS011;6444;49.742;6.114;2023-05-27T02:26:24;10.17;;;4.67;;
12760;SDS011;6444;49.742;6.114;2023-05-27T02:28:52;10.77;;;4.77;;
12760;SDS011;6444;49.742;6.114;2023-05-27T02:31:18;11.30;;;4.93;;
12760;SDS011;6444;49.742;6.114;2023-05-27T02:33:45;10.68;;;5.10;;
12760;SDS011;6444;49.742;6.114;2023-05-27T02:36:12;10.43;;;4.80;;
12760;SDS011;6444;49.742;6.114;2023-05-27T02:38:38;16.33;;;4.60;;
12760;SDS011;6444;49.742;6.114;2023-05-27T02:41:06;10.90;;;4.50;;
12760;SDS011;6444;49.742;6.114;2023-05-27T02:43:32;7.50;;;3.90;;
12760;SDS011;6444;49.742;6.114;2023-05-27T02:45:59;9.50;;;4.20;;
12760;SDS011;6444;49.742;6.114;2023-05-27T02:48:26;11.00;;;4.50;;
12760;SDS011;6444;49.742;6.114;2023-05-27T02:50:53;9.53;;;4.57;;
12760;SDS011;6444;49.742;6.114;2023-05-27T02:53:20;11.77;;;4.40;;
12760;SDS011;6444;49.742;6.114;2023-05-27T02:55:46;9.80;;;4.33;;
12760;SDS011;6444;49.742;6.114;2023-05-27T02:58:13;11.33;;;4.77;;
12760;SDS011;6444;49.742;6.114;2023-05-27T03:00:40;9.40;;;4.23;;
12760;SDS011;6444;49.742;6.114;2023-05-27T03:03:07;12.23;;;4.53;;
12760;SDS011;6444;49.742;6.114;2023-05-27T03:05:34;10.87;;;4.57;;
12760;SDS011;6444;49.742;6.114;2023-05-27T03:08:00;5.97;;;3.93;;
12760;SDS011;6444;49.742;6.114;2023-05-27T03:10:28;11.43;;;4.57;;
12760;SDS011;6444;49.742;6.114;2023-05-27T03:12:54;11.93;;;4.80;;
12760;SDS011;6444;49.742;6.114;2023-05-27T03:15:21;10.60;;;4.07;;
12760;SDS011;6444;49.742;6.114;2023-05-27T03:17:47;12.87;;;4.53;;
12760;SDS011;6444;49.742;6.114;2023-05-27T03:20:14;10.73;;;4.53;;
12760;SDS011;6444;49.742;6.114;2023-05-27T03:22:41;10.67;;;4.50;;
12760;SDS011;6444;49.742;6.114;2023-05-27T03:25:07;9.77;;;4.80;;
12760;SDS011;6444;49.742;6.114;2023-05-27T03:27:34;13.57;;;4.40;;
12760;SDS011;6444;49.742;6.114;2023-05-27T03:30:01;9.77;;;4.70;;
12760;SDS011;6444;49.742;6.114;2023-05-27T03:32:27;11.27;;;5.60;;
12760;SDS011;6444;49.742;6.114;2023-05-27T03:34:54;13.33;;;5.23;;
12760;SDS011;6444;49.742;6.114;2023-05-27T03:37:20;11.27;;;4.17;;
12760;SDS011;6444;49.742;6.114;2023-05-27T03:39:47;12.53;;;4.87;;
12760;SDS011;6444;49.742;6.114;2023-05-27T03:42:14;10.27;;;4.60;;
12760;SDS011;6444;49.742;6.114;2023-05-27T03:44:41;11.07;;;4.50;;
12760;SDS011;6444;49.742;6.114;2023-05-27T03:47:08;9.67;;;4.67;;
12760;SDS011;6444;49.742;6.114;2023-05-27T03:49:34;13.67;;;4.50;;
12760;SDS011;6444;49.742;6.114;2023-05-27T03:52:02;6.83;;;4.67;;
12760;SDS011;6444;49.742;6.114;2023-05-27T03:54:28;15.53;;;4.93;;
12760;SDS011;6444;49.742;6.114;2023-05-27T03:56:55;9.33;;;4.93;;
12760;SDS011;6444;49.742;6.114;2023-05-27T03:59:22;8.93;;;4.23;;
12760;SDS011;6444;49.742;6.114;2023-05-27T04:01:48;9.77;;;4.53;;
12760;SDS011;6444;49.742;6.114;2023-05-27T04:04:15;11.67;;;4.37;;
12760;SDS011;6444;49.742;6.114;2023-05-27T04:06:41;7.77;;;4.53;;
12760;SDS011;6444;49.742;6.114;2023-05-27T04:09:08;10.77;;;5.20;;
12760;SDS011;6444;49.742;6.114;2023-05-27T04:11:35;10.63;;;5.17;;
12760;SDS011;6444;49.742;6.114;2023-05-27T04:14:01;10.73;;;4.27;;
12760;SDS011;6444;49.742;6.114;2023-05-27T04:16:28;14.07;;;4.33;;
12760;SDS011;6444;49.742;6.114;2023-05-27T04:18:55;9.37;;;4.50;;
12760;SDS011;6444;49.742;6.114;2023-05-27T04:21:22;11.03;;;4.63;;
12760;SDS011;6444;49.742;6.114;2023-05-27T04:23:49;13.87;;;4.73;;
12760;SDS011;6444;49.742;6.114;2023-05-27T04:26:15;10.03;;;4.23;;
12760;SDS011;6444;49.742;6.114;2023-05-27T04:28:42;8.33;;;4.13;;
12760;SDS011;6444;49.742;6.114;2023-05-27T04:31:09;9.67;;;4.03;;
12760;SDS011;6444;49.742;6.114;2023-05-27T04:33:36;10.10;;;4.83;;
12760;SDS011;6444;49.742;6.114;2023-05-27T04:36:02;11.60;;;4.13;;
12760;SDS011;6444;49.742;6.114;2023-05-27T04:38:29;8.10;;;4.47;;
12760;SDS011;6444;49.742;6.114;2023-05-27T04:40:56;10.20;;;4.07;;
12760;SDS011;6444;49.742;6.114;2023-05-27T04:43:23;10.57;;;4.37;;
12760;SDS011;6444;49.742;6.114;2023-05-27T04:45:50;10.87;;;4.67;;
12760;SDS011;6444;49.742;6.114;2023-05-27T04:48:16;9.47;;;4.67;;
12760;SDS011;6444;49.742;6.114;2023-05-27T04:50:43;12.30;;;4.00;;
12760;SDS011;6444;49.742;6.114;2023-05-27T04:53:10;10.57;;;3.70;;
12760;SDS011;6444;49.742;6.114;2023-05-27T04:55:36;10.93;;;4.30;;
12760;SDS011;6444;49.742;6.114;2023-05-27T04:58:03;9.88;;;3.53;;
12760;SDS011;6444;49.742;6.114;2023-05-27T05:00:30;7.70;;;3.90;;
12760;SDS011;6444;49.742;6.114;2023-05-27T05:03:02;10.15;;;3.90;;
12760;SDS011;6444;49.742;6.114;2023-05-27T05:05:29;7.55;;;3.22;;
12760;SDS011;6444;49.742;6.114;2023-05-27T05:07:55;6.30;;;3.25;;
12760;SDS011;6444;49.742;6.114;2023-05-27T05:10:22;7.87;;;3.40;;
12760;SDS011;6444;49.742;6.114;2023-05-27T05:12:49;10.05;;;3.47;;
12760;SDS011;6444;49.742;6.114;2023-05-27T05:15:15;9.90;;;3.30;;
12760;SDS011;6444;49.742;6.114;2023-05-27T05:17:42;8.23;;;3.37;;
12760;SDS011;6444;49.742;6.114;2023-05-27T05:20:08;8.38;;;3.53;;
12760;SDS011;6444;49.742;6.114;2023-05-27T05:22:35;8.33;;;3.80;;
12760;SDS011;6444;49.742;6.114;2023-05-27T05:25:02;9.20;;;3.20;;
12760;SDS011;6444;49.742;6.114;2023-05-27T05:27:28;11.43;;;3.80;;
12760;SDS011;6444;49.742;6.114;2023-05-27T05:29:55;8.20;;;2.95;;
12760;SDS011;6444;49.742;6.114;2023-05-27T05:32:22;8.25;;;3.70;;
12760;SDS011;6444;49.742;6.114;2023-05-27T05:34:49;9.48;;;3.50;;
12760;SDS011;6444;49.742;6.114;2023-05-27T05:37:16;9.52;;;3.10;;
12760;SDS011;6444;49.742;6.114;2023-05-27T05:39:42;8.05;;;3.37;;
12760;SDS011;6444;49.742;6.114;2023-05-27T05:42:09;9.48;;;3.53;;
12760;SDS011;6444;49.742;6.114;2023-05-27T05:44:36;7.45;;;3.22;;
12760;SDS011;6444;49.742;6.114;2023-05-27T05:47:02;8.25;;;3.35;;
12760;SDS011;6444;49.742;6.114;2023-05-27T05:49:29;9.60;;;3.92;;
12760;SDS011;6444;49.742;6.114;2023-05-27T05:51:55;8.88;;;3.42;;
12760;SDS011;6444;49.742;6.114;2023-05-27T05:54:22;7.95;;;3.20;;
12760;SDS011;6444;49.742;6.114;2023-05-27T05:56:49;8.23;;;3.25;;
12760;SDS011;6444;49.742;6.114;2023-05-27T05:59:15;8.52;;;3.37;;
12760;SDS011;6444;49.742;6.114;2023-05-27T06:01:42;8.00;;;3.10;;
12760;SDS011;6444;49.742;6.114;2023-05-27T06:04:09;9.82;;;3.80;;
12760;SDS011;6444;49.742;6.114;2023-05-27T06:06:36;10.98;;;3.28;;
12760;SDS011;6444;49.742;6.114;2023-05-27T06:09:03;8.77;;;3.20;;
12760;SDS011;6444;49.742;6.114;2023-05-27T06:11:29;9.43;;;3.17;;
12760;SDS011;6444;49.742;6.114;2023-05-27T06:13:56;7.35;;;3.00;;
12760;SDS011;6444;49.742;6.114;2023-05-27T06:16:22;7.28;;;3.70;;
12760;SDS011;6444;49.742;6.114;2023-05-27T06:18:49;7.05;;;3.00;;
12760;SDS011;6444;49.742;6.114;2023-05-27T06:21:16;8.90;;;3.17;;
12760;SDS011;6444;49.742;6.114;2023-05-27T06:23:42;8.68;;;3.70;;
12760;SDS011;6444;49.742;6.114;2023-05-27T06:26:09;6.32;;;3.15;;
12760;SDS011;6444;49.742;6.114;2023-05-27T06:28:36;8.55;;;3.40;;
12760;SDS011;6444;49.742;6.114;2023-05-27T06:31:02;8.00;;;3.20;;
12760;SDS011;6444;49.742;6.114;2023-05-27T06:33:29;8.82;;;3.37;;
12760;SDS011;6444;49.742;6.114;2023-05-27T06:35:56;8.48;;;3.55;;
12760;SDS011;6444;49.742;6.114;2023-05-27T06:38:22;8.65;;;3.28;;
12760;SDS011;6444;49.742;6.114;2023-05-27T06:40:49;9.35;;;3.28;;
12760;SDS011;6444;49.742;6.114;2023-05-27T06:43:15;8.27;;;3.17;;
12760;SDS011;6444;49.742;6.114;2023-05-27T06:45:42;11.80;;;3.22;;
12760;SDS011;6444;49.742;6.114;2023-05-27T06:48:09;8.60;;;3.50;;
12760;SDS011;6444;49.742;6.114;2023-05-27T06:50:35;7.20;;;3.47;;
12760;SDS011;6444;49.742;6.114;2023-05-27T06:53:02;8.93;;;3.58;;
12760;SDS011;6444;49.742;6.114;2023-05-27T06:55:29;7.35;;;3.45;;
12760;SDS011;6444;49.742;6.114;2023-05-27T06:57:56;7.65;;;3.30;;
12760;SDS011;6444;49.742;6.114;2023-05-27T07:00:23;8.02;;;3.50;;
12760;SDS011;6444;49.742;6.114;2023-05-27T07:02:49;8.27;;;3.10;;
12760;SDS011;6444;49.742;6.114;2023-05-27T07:05:16;8.55;;;3.50;;
12760;SDS011;6444;49.742;6.114;2023-05-27T07:07:42;10.15;;;3.20;;
12760;SDS011;6444;49.742;6.114;2023-05-27T07:10:09;9.38;;;3.12;;
12760;SDS011;6444;49.742;6.114;2023-05-27T07:12:36;6.93;;;3.03;;
12760;SDS011;6444;49.742;6.114;2023-05-27T07:15:02;7.53;;;3.30;;
12760;SDS011;6444;49.742;6.114;2023-05-27T07:17:29;7.93;;;3.58;;
12760;SDS011;6444;49.742;6.114;2023-05-27T07:19:56;7.40;;;3.45;;
12760;SDS011;6444;49.742;6.114;2023-05-27T07:22:22;7.57;;;3.25;;
12760;SDS011;6444;49.742;6.114;2023-05-27T07:24:49;8.50;;;3.92;;
12760;SDS011;6444;49.742;6.114;2023-05-27T07:27:16;6.25;;;3.03;;
12760;SDS011;6444;49.742;6.114;2023-05-27T07:29:43;7.18;;;3.40;;
12760;SDS011;6444;49.742;6.114;2023-05-27T07:32:09;10.45;;;3.80;;
12760;SDS011;6444;49.742;6.114;2023-05-27T07:34:36;7.97;;;3.33;;
12760;SDS011;6444;49.742;6.114;2023-05-27T07:37:03;8.30;;;3.70;;
12760;SDS011;6444;49.742;6.114;2023-05-27T07:39:29;7.32;;;3.58;;
12760;SDS011;6444;49.742;6.114;2023-05-27T07:41:56;7.78;;;3.17;;
12760;SDS011;6444;49.742;6.114;2023-05-27T07:44:23;8.90;;;3.65;;
12760;SDS011;6444;49.742;6.114;2023-05-27T07:46:49;8.90;;;3.70;;
12760;SDS011;6444;49.742;6.114;2023-05-27T07:49:16;7.72;;;3.60;;
12760;SDS011;6444;49.742;6.114;2023-05-27T07:51:42;8.70;;;3.60;;
12760;SDS011;6444;49.742;6.114;2023-05-27T07:54:09;8.82;;;3.50;;
12760;SDS011;6444;49.742;6.114;2023-05-27T07:56:36;9.60;;;3.85;;
12760;SDS011;6444;49.742;6.114;2023-05-27T07:59:02;11.90;;;4.07;;
12760;SDS011;6444;49.742;6.114;2023-05-27T08:01:29;8.75;;;3.40;;
12760;SDS011;6444;49.742;6.114;2023-05-27T08:03:56;8.70;;;3.33;;
12760;SDS011;6444;49.742;6.114;2023-05-27T08:06:22;7.03;;;3.25;;
12760;SDS011;6444;49.742;6.114;2023-05-27T08:08:49;9.55;;;3.85;;
12760;SDS011;6444;49.742;6.114;2023-05-27T08:11:15;8.82;;;3.60;;
12760;SDS011;6444;49.742;6.114;2023-05-27T08:13:42;8.35;;;3.47;;
12760;SDS011;6444;49.742;6.114;2023-05-27T08:16:09;7.68;;;3.35;;
12760;SDS011;6444;49.742;6.114;2023-05-27T08:18:36;6.75;;;3.05;;
12760;SDS011;6444;49.742;6.114;2023-05-27T08:21:02;8.10;;;3.40;;
12760;SDS011;6444;49.742;6.114;2023-05-27T08:23:29;5.43;;;3.12;;
12760;SDS011;6444;49.742;6.114;2023-05-27T08:25:55;8.80;;;3.62;;
12760;SDS011;6444;49.742;6.114;2023-05-27T08:28:22;10.88;;;3.33;;
12760;SDS011;6444;49.742;6.114;2023-05-27T08:30:49;9.07;;;3.80;;
12760;SDS011;6444;49.742;6.114;2023-05-27T08:33:15;8.82;;;3.95;;
12760;SDS011;6444;49.742;6.114;2023-05-27T08:35:42;8.32;;;4.18;;
12760;SDS011;6444;49.742;6.114;2023-05-27T08:38:08;9.05;;;3.30;;
12760;SDS011;6444;49.742;6.114;2023-05-27T08:40:35;8.25;;;3.45;;
12760;SDS011;6444;49.742;6.114;2023-05-27T08:43:02;7.55;;;3.30;;
12760;SDS011;6444;49.742;6.114;2023-05-27T08:45:28;9.32;;;3.85;;
12760;SDS011;6444;49.742;6.114;2023-05-27T08:47:55;8.73;;;3.62;;
12760;SDS011;6444;49.742;6.114;2023-05-27T08:50:22;6.80;;;3.15;;
12760;SDS011;6444;49.742;6.114;2023-05-27T08:52:50;9.52;;;3.47;;
12760;SDS011;6444;49.742;6.114;2023-05-27T08:55:15;9.30;;;3.67;;
12760;SDS011;6444;49.742;6.114;2023-05-27T08:57:42;10.38;;;3.58;;
12760;SDS011;6444;49.742;6.114;2023-05-27T09:00:09;7.18;;;3.30;;
12760;SDS011;6444;49.742;6.114;2023-05-27T09:02:35;8.70;;;3.70;;
12760;SDS011;6444;49.742;6.114;2023-05-27T09:05:01;10.75;;;3.17;;
12760;SDS011;6444;49.742;6.114;2023-05-27T09:07:29;8.00;;;3.60;;
12760;SDS011;6444;49.742;6.114;2023-05-27T09:09:56;10.20;;;4.28;;
12760;SDS011;6444;49.742;6.114;2023-05-27T09:12:23;6.00;;;3.05;;
12760;SDS011;6444;49.742;6.114;2023-05-27T09:14:51;11.82;;;3.55;;
12760;SDS011;6444;49.742;6.114;2023-05-27T09:17:18;13.48;;;3.87;;
12760;SDS011;6444;49.742;6.114;2023-05-27T09:19:45;9.35;;;3.15;;
12760;SDS011;6444;49.742;6.114;2023-05-27T09:22:20;8.48;;;3.50;;
12760;SDS011;6444;49.742;6.114;2023-05-27T09:24:49;7.47;;;3.35;;
12760;SDS011;6444;49.742;6.114;2023-05-27T09:27:16;9.02;;;3.70;;
12760;SDS011;6444;49.742;6.114;2023-05-27T09:29:42;7.18;;;3.55;;
12760;SDS011;6444;49.742;6.114;2023-05-27T09:32:09;9.45;;;3.28;;
12760;SDS011;6444;49.742;6.114;2023-05-27T09:34:38;8.40;;;3.05;;
12760;SDS011;6444;49.742;6.114;2023-05-27T09:37:05;8.65;;;3.78;;
12760;SDS011;6444;49.742;6.114;2023-05-27T09:39:32;7.37;;;3.22;;
12760;SDS011;6444;49.742;6.114;2023-05-27T09:41:58;9.27;;;3.75;;
12760;SDS011;6444;49.742;6.114;2023-05-27T09:44:28;10.68;;;3.72;;
12760;SDS011;6444;49.742;6.114;2023-05-27T09:46:54;9.95;;;3.35;;
12760;SDS011;6444;49.742;6.114;2023-05-27T09:49:21;9.70;;;3.70;;
12760;SDS011;6444;49.742;6.114;2023-05-27T09:51:48;8.57;;;3.62;;
12760;SDS011;6444;49.742;6.114;2023-05-27T09:54:18;11.00;;;3.50;;
12760;SDS011;6444;49.742;6.114;2023-05-27T09:56:44;9.93;;;3.67;;
12760;SDS011;6444;49.742;6.114;2023-05-27T09:59:11;7.05;;;3.30;;
12760;SDS011;6444;49.742;6.114;2023-05-27T10:01:38;8.98;;;3.70;;
12760;SDS011;6444;49.742;6.114;2023-05-27T10:04:05;8.43;;;3.58;;
12760;SDS011;6444;49.742;6.114;2023-05-27T10:06:31;11.05;;;3.97;;
12760;SDS011;6444;49.742;6.114;2023-05-27T10:08:58;7.87;;;3.60;;
12760;SDS011;6444;49.742;6.114;2023-05-27T10:11:25;7.05;;;3.30;;
12760;SDS011;6444;49.742;6.114;2023-05-27T10:13:54;7.43;;;3.35;;
12760;SDS011;6444;49.742;6.114;2023-05-27T10:16:22;7.47;;;3.33;;
12760;SDS011;6444;49.742;6.114;2023-05-27T10:18:52;6.53;;;3.45;;
12760;SDS011;6444;49.742;6.114;2023-05-27T10:21:18;7.68;;;3.55;;
12760;SDS011;6444;49.742;6.114;2023-05-27T10:23:41;9.77;;;3.70;;
12760;SDS011;6444;49.742;6.114;2023-05-27T10:26:08;7.47;;;3.20;;
12760;SDS011;6444;49.742;6.114;2023-05-27T10:28:35;10.27;;;3.40;;
12760;SDS011;6444;49.742;6.114;2023-05-27T10:31:05;5.50;;;3.10;;
12760;SDS011;6444;49.742;6.114;2023-05-27T10:33:33;8.63;;;3.42;;
12760;SDS011;6444;49.742;6.114;2023-05-27T10:36:03;8.48;;;3.22;;
12760;SDS011;6444;49.742;6.114;2023-05-27T10:38:24;6.97;;;3.35;;
12760;SDS011;6444;49.742;6.114;2023-05-27T10:40:57;8.55;;;3.42;;
12760;SDS011;6444;49.742;6.114;2023-05-27T10:43:17;8.95;;;3.25;;
12760;SDS011;6444;49.742;6.114;2023-05-27T10:45:44;8.10;;;4.10;;
12760;SDS011;6444;49.742;6.114;2023-05-27T10:48:19;8.30;;;3.25;;
12760;SDS011;6444;49.742;6.114;2023-05-27T10:50:52;8.07;;;3.47;;
12760;SDS011;6444;49.742;6.114;2023-05-27T10:53:19;6.15;;;3.28;;
12760;SDS011;6444;49.742;6.114;2023-05-27T10:55:47;8.27;;;3.58;;
12760;SDS011;6444;49.742;6.114;2023-05-27T10:58:12;5.68;;;2.95;;
12760;SDS011;6444;49.742;6.114;2023-05-27T11:00:38;6.55;;;3.72;;
12760;SDS011;6444;49.742;6.114;2023-05-27T11:03:15;9.40;;;3.50;;
12760;SDS011;6444;49.742;6.114;2023-05-27T11:05:32;9.02;;;3.95;;
12760;SDS011;6444;49.742;6.114;2023-05-27T11:07:59;10.93;;;3.83;;
12760;SDS011;6444;49.742;6.114;2023-05-27T11:10:25;7.55;;;3.58;;
12760;SDS011;6444;49.742;6.114;2023-05-27T11:12:51;7.50;;;3.45;;
12760;SDS011;6444;49.742;6.114;2023-05-27T11:15:18;7.70;;;3.37;;
12760;SDS011;6444;49.742;6.114;2023-05-27T11:17:45;10.43;;;3.87;;
12760;SDS011;6444;49.742;6.114;2023-05-27T11:20:11;6.32;;;3.40;;
12760;SDS011;6444;49.742;6.114;2023-05-27T11:22:38;6.03;;;3.08;;
12760;SDS011;6444;49.742;6.114;2023-05-27T11:25:05;9.55;;;3.47;;
12760;SDS011;6444;49.742;6.114;2023-05-27T11:27:32;11.30;;;3.70;;
12760;SDS011;6444;49.742;6.114;2023-05-27T11:30:11;11.23;;;4.28;;
12760;SDS011;6444;49.742;6.114;2023-05-27T11:32:37;6.47;;;3.17;;
12760;SDS011;6444;49.742;6.114;2023-05-27T11:35:04;7.60;;;3.40;;
12760;SDS011;6444;49.742;6.114;2023-05-27T11:37:34;8.50;;;3.65;;
12760;SDS011;6444;49.742;6.114;2023-05-27T11:40:00;7.15;;;2.97;;
12760;SDS011;6444;49.742;6.114;2023-05-27T11:42:27;8.20;;;3.67;;
12760;SDS011;6444;49.742;6.114;2023-05-27T11:44:53;9.68;;;3.53;;
12760;SDS011;6444;49.742;6.114;2023-05-27T11:47:20;7.47;;;3.42;;
12760;SDS011;6444;49.742;6.114;2023-05-27T11:49:46;6.55;;;3.55;;
12760;SDS011;6444;49.742;6.114;2023-05-27T11:52:13;10.27;;;3.80;;
12760;SDS011;6444;49.742;6.114;2023-05-27T11:54:39;6.95;;;3.30;;
12760;SDS011;6444;49.742;6.114;2023-05-27T11:57:06;9.10;;;3.80;;
12760;SDS011;6444;49.742;6.114;2023-05-27T11:59:33;6.93;;;3.75;;
12760;SDS011;6444;49.742;6.114;2023-05-27T12:01:59;9.15;;;3.78;;
12760;SDS011;6444;49.742;6.114;2023-05-27T12:04:26;9.18;;;3.58;;
12760;SDS011;6444;49.742;6.114;2023-05-27T12:06:53;8.73;;;3.50;;
12760;SDS011;6444;49.742;6.114;2023-05-27T12:09:19;6.72;;;3.40;;
12760;SDS011;6444;49.742;6.114;2023-05-27T12:11:46;8.07;;;3.80;;
12760;SDS011;6444;49.742;6.114;2023-05-27T12:14:12;6.15;;;3.58;;
12760;SDS011;6444;49.742;6.114;2023-05-27T12:16:39;8.43;;;3.28;;
12760;SDS011;6444;49.742;6.114;2023-05-27T12:19:06;9.45;;;3.22;;
12760;SDS011;6444;49.742;6.114;2023-05-27T12:21:33;9.68;;;3.90;;
12760;SDS011;6444;49.742;6.114;2023-05-27T12:24:00;7.45;;;3.30;;
12760;SDS011;6444;49.742;6.114;2023-05-27T12:26:26;8.48;;;3.15;;
12760;SDS011;6444;49.742;6.114;2023-05-27T12:28:53;5.82;;;3.30;;
12760;SDS011;6444;49.742;6.114;2023-05-27T12:31:22;9.07;;;3.87;;
12760;SDS011;6444;49.742;6.114;2023-05-27T12:33:49;8.95;;;3.85;;
12760;SDS011;6444;49.742;6.114;2023-05-27T12:36:16;7.78;;;3.28;;
12760;SDS011;6444;49.742;6.114;2023-05-27T12:38:42;7.50;;;3.50;;
12760;SDS011;6444;49.742;6.114;2023-05-27T12:41:09;7.57;;;4.00;;
12760;SDS011;6444;49.742;6.114;2023-05-27T12:43:35;8.13;;;3.70;;
12760;SDS011;6444;49.742;6.114;2023-05-27T12:46:02;8.43;;;3.90;;
12760;SDS011;6444;49.742;6.114;2023-05-27T12:48:29;7.00;;;3.90;;
12760;SDS011;6444;49.742;6.114;2023-05-27T12:50:55;11.02;;;3.65;;
12760;SDS011;6444;49.742;6.114;2023-05-27T12:53:22;10.90;;;4.22;;
12760;SDS011;6444;49.742;6.114;2023-05-27T12:55:49;7.37;;;3.40;;
12760;SDS011;6444;49.742;6.114;2023-05-27T12:58:16;8.25;;;3.78;;
12760;SDS011;6444;49.742;6.114;2023-05-27T13:00:43;6.53;;;3.83;;
12760;SDS011;6444;49.742;6.114;2023-05-27T13:03:09;9.40;;;3.83;;
12760;SDS011;6444;49.742;6.114;2023-05-27T13:05:36;10.00;;;4.12;;
12760;SDS011;6444;49.742;6.114;2023-05-27T13:08:03;8.27;;;3.53;;
12760;SDS011;6444;49.742;6.114;2023-05-27T13:10:29;7.82;;;3.45;;
12760;SDS011;6444;49.742;6.114;2023-05-27T13:12:57;9.32;;;4.50;;
12760;SDS011;6444;49.742;6.114;2023-05-27T13:15:22;9.13;;;3.70;;
12760;SDS011;6444;49.742;6.114;2023-05-27T13:17:49;7.55;;;3.87;;
12760;SDS011;6444;49.742;6.114;2023-05-27T13:20:16;9.20;;;3.65;;
12760;SDS011;6444;49.742;6.114;2023-05-27T13:22:42;9.20;;;3.72;;
12760;SDS011;6444;49.742;6.114;2023-05-27T13:25:09;8.27;;;3.33;;
12760;SDS011;6444;49.742;6.114;2023-05-27T13:27:36;10.05;;;4.07;;
12760;SDS011;6444;49.742;6.114;2023-05-27T13:30:02;7.65;;;3.92;;
12760;SDS011;6444;49.742;6.114;2023-05-27T13:32:34;6.70;;;3.35;;
12760;SDS011;6444;49.742;6.114;2023-05-27T13:35:01;11.65;;;4.30;;
12760;SDS011;6444;49.742;6.114;2023-05-27T13:37:29;6.62;;;3.87;;
12760;SDS011;6444;49.742;6.114;2023-05-27T13:39:55;8.02;;;3.85;;
12760;SDS011;6444;49.742;6.114;2023-05-27T13:42:22;8.32;;;4.03;;
12760;SDS011;6444;49.742;6.114;2023-05-27T13:44:48;8.35;;;4.15;;
12760;SDS011;6444;49.742;6.114;2023-05-27T13:47:16;11.23;;;3.75;;
12760;SDS011;6444;49.742;6.114;2023-05-27T13:49:42;8.20;;;3.80;;
12760;SDS011;6444;49.742;6.114;2023-05-27T13:52:09;8.57;;;3.75;;
12760;SDS011;6444;49.742;6.114;2023-05-27T13:54:36;11.25;;;4.05;;
12760;SDS011;6444;49.742;6.114;2023-05-27T13:57:02;13.75;;;3.95;;
12760;SDS011;6444;49.742;6.114;2023-05-27T13:59:30;7.80;;;3.80;;
12760;SDS011;6444;49.742;6.114;2023-05-27T14:01:56;7.50;;;3.95;;
12760;SDS011;6444;49.742;6.114;2023-05-27T14:04:23;6.15;;;3.22;;
12760;SDS011;6444;49.742;6.114;2023-05-27T14:06:50;8.32;;;3.78;;
12760;SDS011;6444;49.742;6.114;2023-05-27T14:09:17;4.75;;;3.22;;
12760;SDS011;6444;49.742;6.114;2023-05-27T14:14:40;9.98;;;4.07;;
12760;SDS011;6444;49.742;6.114;2023-05-27T14:17:07;7.07;;;3.90;;
12760;SDS011;6444;49.742;6.114;2023-05-27T14:19:33;7.05;;;4.00;;
12760;SDS011;6444;49.742;6.114;2023-05-27T14:22:00;7.78;;;3.87;;
12760;SDS011;6444;49.742;6.114;2023-05-27T14:24:26;8.98;;;4.53;;
12760;SDS011;6444;49.742;6.114;2023-05-27T14:26:53;10.55;;;4.50;;
12760;SDS011;6444;49.742;6.114;2023-05-27T14:29:20;9.57;;;3.95;;
12760;SDS011;6444;49.742;6.114;2023-05-27T14:31:46;8.35;;;4.32;;
12760;SDS011;6444;49.742;6.114;2023-05-27T14:34:13;8.07;;;4.35;;
12760;SDS011;6444;49.742;6.114;2023-05-27T14:36:40;8.93;;;4.72;;
12760;SDS011;6444;49.742;6.114;2023-05-27T14:39:06;9.70;;;4.62;;
12760;SDS011;6444;49.742;6.114;2023-05-27T14:41:33;7.57;;;4.22;;
12760;SDS011;6444;49.742;6.114;2023-05-27T14:43:59;11.98;;;4.53;;
12760;SDS011;6444;49.742;6.114;2023-05-27T14:46:27;9.30;;;4.47;;
12760;SDS011;6444;49.742;6.114;2023-05-27T14:48:53;8.07;;;4.32;;
12760;SDS011;6444;49.742;6.114;2023-05-27T14:51:20;6.78;;;4.28;;
12760;SDS011;6444;49.742;6.114;2023-05-27T14:53:47;5.95;;;4.00;;
12760;SDS011;6444;49.742;6.114;2023-05-27T14:56:13;8.65;;;4.80;;
12760;SDS011;6444;49.742;6.114;2023-05-27T14:58:40;7.87;;;4.30;;
12760;SDS011;6444;49.742;6.114;2023-05-27T15:01:07;8.50;;;4.10;;
12760;SDS011;6444;49.742;6.114;2023-05-27T15:03:33;7.07;;;4.62;;